createdAt,value
2017-11-14T00:01:00.281Z,3.50
2017-11-14T00:03:27.836Z,3.50
2017-11-14T00:05:55.376Z,3.40
2017-11-14T00:08:23.227Z,3.40
2017-11-14T00:10:50.713Z,3.40
2017-11-14T00:13:18.195Z,3.40
2017-11-14T00:15:45.676Z,3.30
2017-11-14T00:18:13.188Z,3.30
2017-11-14T00:20:41.146Z,3.30
2017-11-14T00:23:08.646Z,3.30
2017-11-14T00:25:36.122Z,3.20
2017-11-14T00:28:03.580Z,3.20
2017-11-14T00:30:31.043Z,3.20
2017-11-14T00:32:58.494Z,3.20
2017-11-14T00:35:25.957Z,3.20
2017-11-14T00:37:53.416Z,3.20
2017-11-14T00:40:26.053Z,3.10
2017-11-14T00:42:53.544Z,3.10
2017-11-14T00:45:21.004Z,3.10
2017-11-14T00:47:48.459Z,3.10
2017-11-14T00:50:15.918Z,3.10
2017-11-14T00:52:43.376Z,3.10
2017-11-14T00:55:10.853Z,3.00
2017-11-14T00:57:39.072Z,3.00
2017-11-14T01:00:06.520Z,3.00
2017-11-14T01:02:33.970Z,3.00
2017-11-14T01:05:01.423Z,3.00
2017-11-14T01:07:28.876Z,3.00
2017-11-14T01:09:56.319Z,3.00
2017-11-14T01:12:23.809Z,3.00
2017-11-14T01:14:51.256Z,3.00
2017-11-14T01:17:18.707Z,3.00
2017-11-14T01:19:46.209Z,3.00
2017-11-14T01:22:13.660Z,3.00
2017-11-14T01:24:41.133Z,3.10
2017-11-14T01:27:08.583Z,3.10
2017-11-14T01:29:36.058Z,3.10
2017-11-14T01:32:03.523Z,3.10
2017-11-14T01:34:31.738Z,3.10
2017-11-14T01:36:59.190Z,3.00
2017-11-14T01:39:26.643Z,3.00
2017-11-14T01:41:54.100Z,3.00
2017-11-14T01:44:21.587Z,3.10
2017-11-14T01:46:49.049Z,3.00
2017-11-14T01:49:16.523Z,3.00
2017-11-14T01:51:43.981Z,2.90
2017-11-14T01:54:12.236Z,2.90
2017-11-14T01:56:39.691Z,2.90
2017-11-14T01:59:07.153Z,2.90
2017-11-14T02:01:34.611Z,2.80
2017-11-14T02:04:02.083Z,2.80
2017-11-14T02:06:30.327Z,2.80
2017-11-14T02:08:57.816Z,2.80
2017-11-14T02:11:25.274Z,2.80
2017-11-14T02:13:53.515Z,2.80
2017-11-14T02:16:20.978Z,2.80
2017-11-14T02:18:48.435Z,2.80
2017-11-14T02:21:15.935Z,2.80
2017-11-14T02:23:44.174Z,2.80
2017-11-14T02:26:11.675Z,2.80
2017-11-14T02:28:39.120Z,2.80
2017-11-14T02:31:06.617Z,2.70
2017-11-14T02:33:34.077Z,2.80
2017-11-14T02:36:01.543Z,2.80
2017-11-14T02:38:29.000Z,2.80
2017-11-14T02:40:56.465Z,2.80
2017-11-14T02:43:23.953Z,2.80
2017-11-14T02:45:51.417Z,2.80
2017-11-14T02:48:18.876Z,2.80
2017-11-14T02:50:46.333Z,2.70
2017-11-14T02:53:14.556Z,2.70
2017-11-14T02:55:42.002Z,2.70
2017-11-14T02:58:09.471Z,2.70
2017-11-14T03:00:36.938Z,2.70
2017-11-14T03:03:04.401Z,2.70
2017-11-14T03:05:31.880Z,2.70
2017-11-14T03:07:59.347Z,2.70
2017-11-14T03:10:26.811Z,2.70
2017-11-14T03:12:54.301Z,2.70
2017-11-14T03:15:21.763Z,2.70
2017-11-14T03:17:49.244Z,2.70
2017-11-14T03:20:16.724Z,2.70
2017-11-14T03:22:44.187Z,2.70
2017-11-14T03:25:11.642Z,2.70
2017-11-14T03:27:39.113Z,2.70
2017-11-14T03:30:06.578Z,2.80
2017-11-14T03:32:34.047Z,2.70
2017-11-14T03:35:01.509Z,2.70
2017-11-14T03:37:28.972Z,2.80
2017-11-14T03:39:56.438Z,2.80
2017-11-14T03:42:23.895Z,2.80
2017-11-14T03:44:51.360Z,2.90
2017-11-14T03:47:18.823Z,2.90
2017-11-14T03:49:46.267Z,3.00
2017-11-14T03:52:13.787Z,3.00
2017-11-14T03:54:41.248Z,3.00
2017-11-14T03:57:08.714Z,3.00
2017-11-14T03:59:36.171Z,3.00
2017-11-14T04:02:03.661Z,2.90
2017-11-14T04:04:31.117Z,3.00
2017-11-14T04:06:58.585Z,3.00
2017-11-14T04:09:26.070Z,3.00
2017-11-14T04:11:53.540Z,3.00
2017-11-14T04:14:21.782Z,2.90
2017-11-14T04:16:49.269Z,2.90
2017-11-14T04:19:16.729Z,2.90
2017-11-14T04:21:44.195Z,2.90
2017-11-14T04:24:11.682Z,2.90
2017-11-14T04:26:39.149Z,2.90
2017-11-14T04:29:06.607Z,2.90
2017-11-14T04:31:34.078Z,2.90
2017-11-14T04:34:01.571Z,3.00
2017-11-14T04:36:29.032Z,3.00
2017-11-14T04:38:56.576Z,3.00
2017-11-14T04:41:24.059Z,3.00
2017-11-14T04:43:51.519Z,3.00
2017-11-14T04:46:19.015Z,3.00
2017-11-14T04:48:46.504Z,3.00
2017-11-14T04:51:14.799Z,2.90
2017-11-14T04:53:42.365Z,2.90
2017-11-14T04:56:09.885Z,2.90
2017-11-14T04:58:37.378Z,2.90
2017-11-14T05:01:04.821Z,2.90
2017-11-14T05:03:32.385Z,2.90
2017-11-14T05:05:59.939Z,3.00
2017-11-14T05:08:27.460Z,3.00
2017-11-14T05:10:55.176Z,3.10
2017-11-14T05:13:23.178Z,3.10
2017-11-14T05:15:50.689Z,3.20
2017-11-14T05:18:18.162Z,3.30
2017-11-14T05:20:45.862Z,3.30
2017-11-14T05:23:13.941Z,3.30
2017-11-14T05:25:41.433Z,3.40
2017-11-14T05:28:09.667Z,3.40
2017-11-14T05:30:37.160Z,3.40
2017-11-14T05:33:05.341Z,3.40
2017-11-14T05:35:32.841Z,3.40
2017-11-14T05:38:00.324Z,3.40
2017-11-14T05:40:27.812Z,3.40
2017-11-14T05:42:55.320Z,3.40
2017-11-14T05:45:22.991Z,3.40
2017-11-14T05:47:50.479Z,3.40
2017-11-14T05:50:17.958Z,3.40
2017-11-14T05:52:46.176Z,3.50
2017-11-14T05:55:13.708Z,3.50
2017-11-14T05:57:41.250Z,3.40
2017-11-14T06:00:08.712Z,3.50
2017-11-14T06:02:36.276Z,3.50
2017-11-14T06:05:03.795Z,3.50
2017-11-14T06:07:31.295Z,3.60
2017-11-14T06:09:58.821Z,3.60
2017-11-14T06:12:26.284Z,3.60
2017-11-14T06:14:54.565Z,3.70
2017-11-14T06:17:22.837Z,3.70
2017-11-14T06:19:50.330Z,3.70
2017-11-14T06:22:18.728Z,3.80
2017-11-14T06:24:46.219Z,3.70
2017-11-14T06:27:13.703Z,3.70
2017-11-14T06:29:41.168Z,3.70
2017-11-14T06:32:08.831Z,3.70
2017-11-14T06:34:36.375Z,3.80
2017-11-14T06:37:03.893Z,3.90
2017-11-14T06:39:31.799Z,4.00
2017-11-14T06:41:59.323Z,4.10
2017-11-14T06:44:28.037Z,4.20
2017-11-14T06:46:55.585Z,4.20
2017-11-14T06:49:23.096Z,4.30
2017-11-14T06:51:50.588Z,4.30
2017-11-14T06:54:18.055Z,4.40
2017-11-14T06:56:45.532Z,4.40
2017-11-14T06:59:12.991Z,4.60
2017-11-14T07:01:40.452Z,4.60
2017-11-14T07:04:07.904Z,4.60
2017-11-14T07:06:35.360Z,4.60
2017-11-14T07:09:02.819Z,4.70
2017-11-14T07:11:30.307Z,4.80
2017-11-14T07:13:57.834Z,4.80
2017-11-14T07:16:25.348Z,4.90
2017-11-14T07:18:52.819Z,4.90
2017-11-14T07:21:20.315Z,5.00
2017-11-14T07:23:47.774Z,5.00
2017-11-14T07:26:15.319Z,5.20
2017-11-14T07:28:42.822Z,5.10
2017-11-14T07:31:10.289Z,5.10
2017-11-14T07:33:37.800Z,5.20
2017-11-14T07:36:05.316Z,5.20
2017-11-14T07:38:32.785Z,5.20
2017-11-14T07:41:00.358Z,5.20
2017-11-14T07:43:27.890Z,5.20
2017-11-14T07:45:55.751Z,5.20
2017-11-14T07:48:23.405Z,5.30
2017-11-14T07:50:50.911Z,5.40
2017-11-14T07:53:18.456Z,5.50
2017-11-14T07:55:45.947Z,5.60
2017-11-14T07:58:13.478Z,5.70
2017-11-14T08:00:41.010Z,5.70
2017-11-14T08:03:08.492Z,5.80
2017-11-14T08:05:35.975Z,6.00
2017-11-14T08:08:03.435Z,6.10
2017-11-14T08:10:30.907Z,6.00
2017-11-14T08:12:58.371Z,6.00
2017-11-14T08:15:25.825Z,6.00
2017-11-14T08:17:53.344Z,5.90
2017-11-14T08:20:20.775Z,5.90
2017-11-14T08:22:48.252Z,5.90
2017-11-14T08:25:16.545Z,6.00
2017-11-14T08:27:44.003Z,6.00
2017-11-14T08:30:11.460Z,6.10
2017-11-14T08:32:39.292Z,6.10
2017-11-14T08:35:06.759Z,6.10
2017-11-14T08:37:34.223Z,6.10
2017-11-14T08:40:02.450Z,6.20
2017-11-14T08:42:29.939Z,6.20
2017-11-14T08:44:57.431Z,6.20
2017-11-14T08:47:24.908Z,6.30
2017-11-14T08:49:52.388Z,6.30
2017-11-14T08:52:19.855Z,6.40
2017-11-14T08:54:47.321Z,6.40
2017-11-14T08:57:15.368Z,6.50
2017-11-14T08:59:42.846Z,6.60
2017-11-14T09:02:10.328Z,6.70
2017-11-14T09:04:37.792Z,6.80
2017-11-14T09:07:06.016Z,6.80
2017-11-14T09:09:33.526Z,6.80
2017-11-14T09:12:00.975Z,6.80
2017-11-14T09:14:28.430Z,6.80
2017-11-14T09:16:55.890Z,6.80
2017-11-14T09:19:23.363Z,6.90
2017-11-14T09:21:50.826Z,6.80
2017-11-14T09:24:18.310Z,6.90
2017-11-14T09:26:45.758Z,6.80
2017-11-14T09:29:13.249Z,6.90
2017-11-14T09:31:40.719Z,6.90
2017-11-14T09:34:08.179Z,6.90
2017-11-14T09:36:35.676Z,6.90
2017-11-14T09:39:03.160Z,6.90
2017-11-14T09:41:30.736Z,6.90
2017-11-14T09:43:58.964Z,7.10
2017-11-14T09:46:26.420Z,7.00
2017-11-14T09:48:53.909Z,7.00
2017-11-14T09:51:21.397Z,7.10
2017-11-14T09:53:48.882Z,7.00
2017-11-14T09:56:16.351Z,7.00
2017-11-14T09:58:43.809Z,7.10
2017-11-14T10:01:11.292Z,7.20
2017-11-14T10:03:38.758Z,7.30
2017-11-14T10:06:06.208Z,7.40
2017-11-14T10:08:33.697Z,7.40
2017-11-14T10:11:01.193Z,7.50
2017-11-14T10:13:28.659Z,7.70
2017-11-14T10:15:56.123Z,7.80
2017-11-14T10:18:23.580Z,8.00
2017-11-14T10:20:51.051Z,8.00
2017-11-14T10:23:18.536Z,7.90
2017-11-14T10:25:45.999Z,7.90
2017-11-14T10:28:13.503Z,7.80
2017-11-14T10:30:40.967Z,7.80
2017-11-14T10:33:08.470Z,7.90
2017-11-14T10:35:35.974Z,7.90
2017-11-14T10:38:03.510Z,7.90
2017-11-14T10:40:31.001Z,7.90
2017-11-14T10:42:58.448Z,7.80
2017-11-14T10:45:25.917Z,7.80
2017-11-14T10:47:53.385Z,7.90
2017-11-14T10:50:20.910Z,7.90
2017-11-14T10:52:48.388Z,8.00
2017-11-14T10:55:15.871Z,8.00
2017-11-14T10:57:43.396Z,7.90
2017-11-14T11:00:10.875Z,7.90
2017-11-14T11:02:38.351Z,8.00
2017-11-14T11:05:05.840Z,8.00
2017-11-14T11:07:33.319Z,8.00
2017-11-14T11:10:00.840Z,8.10
2017-11-14T11:12:29.068Z,8.20
2017-11-14T11:14:56.528Z,8.20
2017-11-14T11:17:24.030Z,8.10
2017-11-14T11:19:51.540Z,8.10
2017-11-14T11:22:19.055Z,8.20
2017-11-14T11:24:46.578Z,8.20
2017-11-14T11:27:14.048Z,8.20
2017-11-14T11:29:41.516Z,8.20
2017-11-14T11:32:08.998Z,8.20
2017-11-14T11:34:36.714Z,8.20
2017-11-14T11:37:04.179Z,8.20
2017-11-14T11:39:31.674Z,8.10
2017-11-14T11:41:59.233Z,8.10
2017-11-14T11:44:27.027Z,8.10
2017-11-14T11:46:54.504Z,8.10
2017-11-14T11:49:22.004Z,8.00
2017-11-14T11:51:50.242Z,7.90
2017-11-14T11:54:17.716Z,7.80
2017-11-14T11:56:45.976Z,7.80
2017-11-14T11:59:13.448Z,7.80
2017-11-14T12:01:41.687Z,7.70
2017-11-14T12:04:09.165Z,7.70
2017-11-14T12:06:36.635Z,7.60
2017-11-14T12:09:04.121Z,7.60
2017-11-14T12:11:31.575Z,7.60
2017-11-14T12:13:59.039Z,7.60
2017-11-14T12:16:26.494Z,7.50
2017-11-14T12:18:53.969Z,7.40
2017-11-14T12:21:21.479Z,7.30
2017-11-14T12:23:48.985Z,7.30
2017-11-14T12:26:16.461Z,7.40
2017-11-14T12:28:43.980Z,7.40
2017-11-14T12:31:11.462Z,7.40
2017-11-14T12:33:38.974Z,7.40
2017-11-14T12:36:07.220Z,7.30
2017-11-14T12:38:34.675Z,7.30
2017-11-14T12:41:02.145Z,7.30
2017-11-14T12:43:29.625Z,7.30
2017-11-14T12:45:57.082Z,7.30
2017-11-14T12:48:25.331Z,7.30
2017-11-14T12:50:52.811Z,7.30
2017-11-14T12:53:20.283Z,7.30
2017-11-14T12:55:48.499Z,7.20
2017-11-14T12:58:15.966Z,7.20
2017-11-14T13:00:43.419Z,7.10
2017-11-14T13:03:10.885Z,7.10
2017-11-14T13:05:38.409Z,7.10
2017-11-14T13:08:05.865Z,7.20
2017-11-14T13:10:33.320Z,7.20
2017-11-14T13:13:00.772Z,7.20
2017-11-14T13:15:28.230Z,7.30
2017-11-14T13:17:55.723Z,7.30
2017-11-14T13:20:23.202Z,7.30
2017-11-14T13:22:50.658Z,7.30
2017-11-14T13:25:18.133Z,7.30
2017-11-14T13:27:46.377Z,7.30
2017-11-14T13:30:13.871Z,7.30
2017-11-14T13:32:41.412Z,7.30
2017-11-14T13:35:08.891Z,7.30
2017-11-14T13:37:36.354Z,7.30
2017-11-14T13:40:03.820Z,7.40
2017-11-14T13:42:31.279Z,7.50
2017-11-14T13:44:58.741Z,7.40
2017-11-14T13:47:26.213Z,7.40
2017-11-14T13:49:53.693Z,7.50
2017-11-14T13:52:21.157Z,7.50
2017-11-14T13:54:48.615Z,7.60
2017-11-14T13:57:16.075Z,7.50
2017-11-14T13:59:43.533Z,7.50
2017-11-14T14:02:11.911Z,7.50
2017-11-14T14:04:39.378Z,7.50
2017-11-14T14:07:06.853Z,7.60
2017-11-14T14:09:34.330Z,7.60
2017-11-14T14:12:01.805Z,7.50
2017-11-14T14:14:29.278Z,7.60
2017-11-14T14:16:56.754Z,7.60
2017-11-14T14:19:24.216Z,7.50
2017-11-14T14:21:51.684Z,7.50
2017-11-14T14:24:19.933Z,7.50
2017-11-14T14:26:47.399Z,7.50
2017-11-14T14:29:14.880Z,7.60
2017-11-14T14:31:43.129Z,7.70
2017-11-14T14:34:10.621Z,7.70
2017-11-14T14:36:38.821Z,7.70
2017-11-14T14:39:06.304Z,7.70
2017-11-14T14:41:33.808Z,7.80
2017-11-14T14:44:01.315Z,7.80
2017-11-14T14:46:28.800Z,7.80
2017-11-14T14:48:56.258Z,7.80
2017-11-14T14:51:23.731Z,7.80
2017-11-14T14:53:51.980Z,7.90
2017-11-14T14:56:19.456Z,7.90
2017-11-14T14:58:46.924Z,7.90
2017-11-14T15:01:14.376Z,7.90
2017-11-14T15:03:42.636Z,8.00
2017-11-14T15:06:10.115Z,8.00
2017-11-14T15:08:37.572Z,8.00
2017-11-14T15:11:05.036Z,8.00
2017-11-14T15:13:32.504Z,8.00
2017-11-14T15:15:59.960Z,8.00
2017-11-14T15:18:27.568Z,8.00
2017-11-14T15:20:56.128Z,8.00
2017-11-14T15:23:23.620Z,8.00
2017-11-14T15:25:51.081Z,8.00
2017-11-14T15:28:19.310Z,8.00
2017-11-14T15:30:46.845Z,8.00
2017-11-14T15:33:14.321Z,8.10
2017-11-14T15:35:41.781Z,8.00
2017-11-14T15:38:09.256Z,8.00
2017-11-14T15:40:36.727Z,8.00
2017-11-14T15:43:04.210Z,8.00
2017-11-14T15:45:32.452Z,7.90
2017-11-14T15:47:59.919Z,7.90
2017-11-14T15:50:27.405Z,7.90
2017-11-14T15:52:54.867Z,8.00
2017-11-14T15:55:22.329Z,7.90
2017-11-14T15:57:49.798Z,8.00
2017-11-14T16:00:17.277Z,8.00
2017-11-14T16:02:44.726Z,8.00
2017-11-14T16:05:12.199Z,8.00
2017-11-14T16:07:39.660Z,8.00
2017-11-14T16:10:07.112Z,8.00
2017-11-14T16:12:34.592Z,8.00
2017-11-14T16:15:02.064Z,8.00
2017-11-14T16:17:30.302Z,8.10
2017-11-14T16:19:57.768Z,8.10
2017-11-14T16:22:25.235Z,8.10
2017-11-14T16:24:52.708Z,8.10
2017-11-14T16:27:20.956Z,8.20
2017-11-14T16:29:48.429Z,8.20
2017-11-14T16:32:15.896Z,8.20
2017-11-14T16:34:44.122Z,8.20
2017-11-14T16:37:11.580Z,8.20
2017-11-14T16:39:39.069Z,8.30
2017-11-14T16:42:06.626Z,8.30
2017-11-14T16:44:34.144Z,8.20
2017-11-14T16:47:01.631Z,8.30
2017-11-14T16:49:29.127Z,8.30
2017-11-14T16:51:57.396Z,8.60
2017-11-14T16:54:25.644Z,8.50
2017-11-14T16:56:53.155Z,8.50
2017-11-14T16:59:20.681Z,8.50
2017-11-14T17:01:49.346Z,8.70
2017-11-14T17:04:17.196Z,8.70
2017-11-14T17:06:44.800Z,8.70
2017-11-14T17:09:12.483Z,8.70
2017-11-14T17:11:40.038Z,8.70
2017-11-14T17:14:07.581Z,8.80
2017-11-14T17:16:35.165Z,8.80
2017-11-14T17:19:02.763Z,8.80
2017-11-14T17:21:30.274Z,8.80
2017-11-14T17:23:57.990Z,8.80
2017-11-14T17:26:27.148Z,8.70
2017-11-14T17:28:54.679Z,8.70
2017-11-14T17:31:22.301Z,8.70
2017-11-14T17:33:50.697Z,8.70
2017-11-14T17:36:18.969Z,8.70
2017-11-14T17:38:57.286Z,8.80
2017-11-14T17:41:24.992Z,8.80
2017-11-14T17:43:52.505Z,8.90
2017-11-14T17:46:19.985Z,8.90
2017-11-14T17:48:47.547Z,8.90
2017-11-14T17:51:15.848Z,8.80
2017-11-14T17:53:43.360Z,8.80
2017-11-14T17:56:10.843Z,8.90
2017-11-14T17:58:38.342Z,8.90
2017-11-14T18:01:05.845Z,8.90
2017-11-14T18:03:34.420Z,8.90
2017-11-14T18:06:01.988Z,9.00
2017-11-14T18:08:30.308Z,9.10
2017-11-14T18:10:58.220Z,9.00
2017-11-14T18:13:33.995Z,9.10
2017-11-14T18:16:01.569Z,9.20
2017-11-14T18:18:29.137Z,9.20
2017-11-14T18:20:56.813Z,9.20
2017-11-14T18:23:24.372Z,9.30
2017-11-14T18:25:52.256Z,9.30
2017-11-14T18:28:20.552Z,9.30
2017-11-14T18:30:49.004Z,9.20
2017-11-14T18:33:16.503Z,9.20
2017-11-14T18:35:44.066Z,9.30
2017-11-14T18:38:11.530Z,9.20
2017-11-14T18:40:39.196Z,9.30
2017-11-14T18:43:06.784Z,9.40
2017-11-14T18:45:34.321Z,9.50
2017-11-14T18:48:03.255Z,9.40
2017-11-14T18:50:30.968Z,9.40
2017-11-14T18:52:58.528Z,9.40
2017-11-14T18:55:26.098Z,9.40
2017-11-14T18:57:53.733Z,9.40
2017-11-14T19:00:34.509Z,9.40
2017-11-14T19:03:02.648Z,9.40
2017-11-14T19:05:30.503Z,9.50
2017-11-14T19:07:59.600Z,9.50
2017-11-14T19:10:30.351Z,9.40
2017-11-14T19:13:07.353Z,9.50
2017-11-14T19:15:42.052Z,9.40
2017-11-14T19:18:42.785Z,9.30
2017-11-14T19:21:20.062Z,9.30
2017-11-14T19:23:51.376Z,9.30
2017-11-14T19:26:34.036Z,9.30
2017-11-14T19:29:01.585Z,9.40
2017-11-14T19:31:29.103Z,9.40
2017-11-14T19:33:56.656Z,9.40
2017-11-14T19:36:24.369Z,9.30
2017-11-14T19:38:51.878Z,9.30
2017-11-14T19:41:19.441Z,9.30
2017-11-14T19:43:46.988Z,9.30
2017-11-14T19:46:14.516Z,9.30
2017-11-14T19:48:42.001Z,9.40
2017-11-14T19:51:09.526Z,9.40
2017-11-14T19:53:37.029Z,9.50
2017-11-14T19:56:08.166Z,9.40
2017-11-14T19:58:35.789Z,9.40
2017-11-14T20:01:03.300Z,9.40
2017-11-14T20:03:30.834Z,9.40
2017-11-14T20:05:58.696Z,9.40
2017-11-14T20:08:26.306Z,9.50
2017-11-14T20:10:54.088Z,9.60
2017-11-14T20:13:21.699Z,9.50
2017-11-14T20:15:50.923Z,9.50
2017-11-14T20:18:19.771Z,9.50
2017-11-14T20:20:47.353Z,9.50
2017-11-14T20:23:14.848Z,9.50
2017-11-14T20:25:42.574Z,9.40
2017-11-14T20:28:10.301Z,9.40
2017-11-14T20:30:42.680Z,9.40
2017-11-14T20:33:10.293Z,9.40
2017-11-14T20:35:38.014Z,9.50
2017-11-14T20:38:05.592Z,9.50
2017-11-14T20:40:39.541Z,9.50
2017-11-14T20:45:57.259Z,9.40
2017-11-14T20:48:26.217Z,9.40
2017-11-14T20:50:55.291Z,9.40
2017-11-14T20:53:24.326Z,9.30
2017-11-14T20:58:55.861Z,9.30
2017-11-14T21:01:32.308Z,9.30
2017-11-14T21:04:01.672Z,9.40
2017-11-14T21:06:30.942Z,9.40
2017-11-14T21:09:08.932Z,9.40
2017-11-14T21:11:36.556Z,9.40
2017-11-14T21:14:05.413Z,9.40
2017-11-14T21:16:36.459Z,9.40
2017-11-14T21:19:05.111Z,9.40
2017-11-14T21:21:55.483Z,9.30
2017-11-14T21:24:23.526Z,9.40
2017-11-14T21:27:11.328Z,9.50
2017-11-14T21:29:47.351Z,9.40
2017-11-14T21:38:31.433Z,9.40
2017-11-14T21:41:00.657Z,9.40
2017-11-14T21:46:02.925Z,9.40
2017-11-14T21:48:32.401Z,9.30
2017-11-14T21:51:14.442Z,9.40
2017-11-14T21:53:42.113Z,9.40
2017-11-14T21:56:09.639Z,9.50
2017-11-14T21:58:37.133Z,9.50
2017-11-14T22:01:04.667Z,9.50
2017-11-14T22:03:32.162Z,9.60
2017-11-14T22:06:00.002Z,9.60
2017-11-14T22:08:27.552Z,9.50
2017-11-14T22:10:55.561Z,9.50
2017-11-14T22:13:26.417Z,9.40
2017-11-14T22:15:53.989Z,9.30
2017-11-14T22:18:21.570Z,9.30
2017-11-14T22:20:49.201Z,9.30
2017-11-14T22:23:16.760Z,9.40
2017-11-14T22:25:44.350Z,9.50
2017-11-14T22:28:11.849Z,9.50
2017-11-14T22:30:39.353Z,9.60
2017-11-14T22:33:06.865Z,9.60
2017-11-14T22:35:34.428Z,9.60
2017-11-14T22:38:01.970Z,9.60
2017-11-14T22:40:30.265Z,9.50
2017-11-14T22:42:57.760Z,9.50
2017-11-14T22:45:25.275Z,9.50
2017-11-14T22:47:52.755Z,9.40
2017-11-14T22:50:20.275Z,9.40
2017-11-14T22:52:48.278Z,9.40
2017-11-14T22:55:16.460Z,9.40
2017-11-14T22:57:44.023Z,9.40
2017-11-14T23:00:11.561Z,9.40
2017-11-14T23:02:39.085Z,9.40
2017-11-14T23:05:06.564Z,9.30
2017-11-14T23:07:34.308Z,9.20
2017-11-14T23:10:02.256Z,9.30
2017-11-14T23:12:30.482Z,9.20
2017-11-14T23:14:58.004Z,9.30
2017-11-14T23:17:25.494Z,9.20
2017-11-14T23:19:52.993Z,9.40
2017-11-14T23:22:20.787Z,9.30
2017-11-14T23:24:48.623Z,9.30
2017-11-14T23:27:16.163Z,9.30
2017-11-14T23:29:43.702Z,9.30
2017-11-14T23:32:11.237Z,9.30
2017-11-14T23:34:38.758Z,9.40
2017-11-14T23:37:06.240Z,9.30
2017-11-14T23:39:33.770Z,9.40
2017-11-14T23:42:01.333Z,9.40
2017-11-14T23:44:28.938Z,9.40
2017-11-14T23:46:56.506Z,9.40
2017-11-14T23:49:24.045Z,9.50
2017-11-14T23:51:52.376Z,9.50
2017-11-14T23:54:19.923Z,9.50
2017-11-14T23:56:47.405Z,9.60
2017-11-14T23:59:14.910Z,9.60
